createdAt,value
2023-03-13T00:01:34.354Z,2.23
2023-03-13T00:04:36.068Z,2.40
2023-03-13T00:07:37.735Z,2.30
2023-03-13T00:10:40.160Z,1.80
2023-03-13T00:13:42.607Z,2.30
2023-03-13T00:16:44.381Z,2.38
2023-03-13T00:19:46.097Z,2.55
2023-03-13T00:22:47.772Z,2.50
2023-03-13T00:25:56.491Z,2.17
2023-03-13T00:28:58.129Z,2.83
2023-03-13T00:32:00.526Z,2.60
2023-03-13T00:35:02.232Z,1.98
2023-03-13T00:38:04.207Z,2.10
2023-03-13T00:41:10.341Z,2.28
2023-03-13T00:44:11.975Z,2.17
2023-03-13T00:47:13.619Z,2.47
2023-03-13T00:50:15.422Z,2.58
2023-03-13T00:53:17.068Z,3.00
2023-03-13T00:56:19.764Z,2.78
2023-03-13T00:59:21.404Z,3.35
2023-03-13T01:02:23.188Z,3.20
2023-03-13T01:05:24.911Z,3.15
2023-03-13T01:08:26.777Z,3.50
2023-03-13T01:11:29.912Z,3.30
2023-03-13T01:14:53.453Z,2.90
2023-03-13T01:17:57.945Z,2.85
2023-03-13T01:21:16.795Z,2.90
2023-03-13T01:24:19.002Z,2.80
2023-03-13T01:27:21.028Z,3.17
2023-03-13T01:30:22.688Z,3.10
2023-03-13T01:34:03.571Z,3.00
2023-03-13T01:37:10.721Z,3.10
2023-03-13T01:40:14.954Z,2.95
2023-03-13T01:43:27.890Z,2.97
2023-03-13T01:46:32.629Z,3.28
2023-03-13T01:50:06.662Z,3.45
2023-03-13T01:53:22.911Z,3.30
2023-03-13T01:56:37.441Z,3.35
2023-03-13T02:00:00.657Z,3.22
2023-03-13T02:03:12.522Z,3.67
2023-03-13T02:06:14.221Z,3.42
2023-03-13T02:09:18.821Z,3.70
2023-03-13T02:12:34.289Z,3.25
2023-03-13T02:15:36.121Z,3.53
2023-03-13T02:18:37.765Z,3.53
2023-03-13T02:21:50.935Z,4.00
2023-03-13T02:24:58.536Z,3.50
2023-03-13T02:28:05.396Z,3.55
2023-03-13T02:31:09.517Z,3.55
2023-03-13T02:34:11.296Z,3.50
2023-03-13T02:37:13.143Z,3.13
2023-03-13T02:40:20.693Z,3.17
2023-03-13T02:43:38.209Z,3.17
2023-03-13T02:46:48.502Z,3.40
2023-03-13T02:49:50.488Z,2.97
2023-03-13T02:53:00.903Z,2.80
2023-03-13T02:56:02.799Z,2.00
2023-03-13T02:59:04.603Z,2.15
2023-03-13T03:02:06.522Z,2.42
2023-03-13T03:05:08.625Z,2.33
2023-03-13T03:08:10.411Z,3.50
2023-03-13T03:11:12.378Z,2.60
2023-03-13T03:14:14.111Z,2.73
2023-03-13T03:17:18.960Z,3.13
2023-03-13T03:20:20.632Z,2.95
2023-03-13T03:23:22.512Z,2.65
2023-03-13T03:26:24.182Z,2.50
2023-03-13T03:29:26.457Z,2.90
2023-03-13T03:32:29.544Z,2.83
2023-03-13T03:35:31.306Z,2.33
2023-03-13T03:38:33.370Z,2.40
2023-03-13T03:41:35.274Z,2.38
2023-03-13T03:44:36.988Z,1.85
2023-03-13T03:47:39.632Z,2.00
2023-03-13T03:50:41.896Z,1.67
2023-03-13T03:53:43.904Z,1.90
2023-03-13T03:56:45.605Z,1.27
2023-03-13T03:59:47.344Z,1.65
2023-03-13T04:02:49.193Z,2.10
2023-03-13T04:05:51.065Z,1.90
2023-03-13T04:08:52.898Z,1.95
2023-03-13T04:11:57.920Z,1.60
2023-03-13T04:14:59.998Z,1.65
2023-03-13T04:18:01.871Z,1.45
2023-03-13T04:21:04.232Z,1.50
2023-03-13T04:24:12.277Z,1.23
2023-03-13T04:27:16.113Z,1.50
2023-03-13T04:30:19.697Z,1.55
2023-03-13T04:33:56.810Z,1.73
2023-03-13T04:37:13.383Z,2.30
2023-03-13T04:40:33.588Z,2.50
2023-03-13T04:43:55.502Z,4.03
2023-03-13T04:47:12.225Z,3.85
2023-03-13T04:50:43.213Z,8.77
2023-03-13T04:53:53.416Z,5.57
2023-03-13T04:57:15.133Z,4.05
2023-03-13T05:00:46.211Z,4.82
2023-03-13T05:03:50.670Z,5.45
2023-03-13T05:07:21.156Z,2.90
2023-03-13T05:10:45.343Z,3.10
2023-03-13T05:14:01.255Z,2.22
2023-03-13T05:17:21.696Z,2.50
2023-03-13T05:20:43.301Z,2.45
2023-03-13T05:24:05.454Z,2.00
2023-03-13T05:27:36.781Z,2.47
2023-03-13T05:30:48.788Z,2.20
2023-03-13T05:34:02.471Z,1.85
2023-03-13T05:37:26.996Z,1.55
2023-03-13T05:40:39.529Z,1.90
2023-03-13T05:43:59.684Z,2.40
2023-03-13T05:47:10.350Z,2.53
2023-03-13T05:50:14.793Z,2.28
2023-03-13T05:53:48.836Z,2.03
2023-03-13T05:57:22.511Z,2.13
2023-03-13T06:00:46.768Z,3.28
2023-03-13T06:04:08.421Z,1.83
2023-03-13T06:07:12.029Z,2.00
2023-03-13T06:10:13.813Z,1.75
2023-03-13T06:13:20.054Z,2.55
2023-03-13T06:16:24.616Z,2.25
2023-03-13T06:19:28.320Z,1.95
2023-03-13T06:22:29.957Z,2.10
2023-03-13T06:25:31.580Z,2.25
2023-03-13T06:28:33.258Z,2.17
2023-03-13T06:31:35.039Z,2.20
2023-03-13T06:34:36.878Z,3.10
2023-03-13T06:37:39.419Z,3.25
2023-03-13T06:40:41.022Z,2.38
2023-03-13T06:43:42.723Z,2.85
2023-03-13T06:46:44.402Z,2.88
2023-03-13T06:49:46.128Z,3.08
2023-03-13T06:52:47.798Z,2.93
2023-03-13T06:55:49.452Z,3.67
2023-03-13T06:58:51.121Z,4.75
2023-03-13T07:01:52.780Z,4.13
2023-03-13T07:04:54.896Z,3.17
2023-03-13T07:07:56.581Z,3.40
2023-03-13T07:10:59.489Z,4.00
2023-03-13T07:14:15.276Z,3.50
2023-03-13T07:17:18.528Z,4.15
2023-03-13T07:20:20.233Z,4.13
2023-03-13T07:23:28.083Z,4.40
2023-03-13T07:30:13.944Z,3.03
2023-03-13T07:33:16.202Z,3.90
2023-03-13T07:36:17.926Z,3.78
2023-03-13T07:39:19.597Z,4.00
2023-03-13T07:42:21.280Z,3.88
2023-03-13T07:45:22.982Z,4.15
2023-03-13T07:51:43.943Z,4.00
2023-03-13T07:54:46.010Z,3.60
2023-03-13T07:57:47.693Z,3.60
2023-03-13T08:00:49.357Z,3.42
2023-03-13T08:03:51.095Z,3.08
2023-03-13T08:06:52.786Z,2.53
2023-03-13T08:09:54.423Z,2.73
2023-03-13T08:16:30.371Z,2.45
2023-03-13T08:19:32.098Z,2.43
2023-03-13T08:22:39.144Z,2.27
2023-03-13T08:25:40.821Z,2.25
2023-03-13T08:28:42.863Z,2.17
2023-03-13T08:31:45.313Z,2.72
2023-03-13T08:37:55.372Z,2.40
2023-03-13T08:40:57.257Z,2.80
2023-03-13T08:43:58.912Z,2.85
2023-03-13T08:47:01.595Z,3.17
2023-03-13T08:50:03.654Z,2.50
2023-03-13T08:53:05.318Z,2.33
2023-03-13T08:56:07.916Z,2.45
2023-03-13T08:59:09.875Z,2.53
2023-03-13T09:02:14.328Z,2.88
2023-03-13T09:05:16.061Z,3.70
2023-03-13T09:08:17.693Z,2.80
2023-03-13T09:11:20.405Z,2.67
2023-03-13T09:14:22.201Z,3.20
2023-03-13T09:17:23.858Z,3.17
2023-03-13T09:20:25.512Z,2.70
2023-03-13T09:23:27.232Z,2.38
2023-03-13T09:26:30.479Z,3.00
2023-03-13T09:29:32.527Z,3.20
2023-03-13T09:32:34.271Z,2.70
2023-03-13T09:35:37.961Z,6.33
2023-03-13T09:38:39.746Z,7.50
2023-03-13T09:41:45.036Z,4.37
2023-03-13T09:44:50.110Z,3.63
2023-03-13T09:47:56.785Z,3.20
2023-03-13T09:51:07.386Z,3.47
2023-03-13T09:54:23.830Z,4.03
2023-03-13T09:57:46.221Z,3.90
2023-03-13T10:00:50.962Z,3.65
2023-03-13T10:03:58.615Z,4.05
2023-03-13T10:07:00.263Z,3.83
2023-03-13T10:10:02.997Z,4.28
2023-03-13T10:13:32.786Z,4.40
2023-03-13T10:16:50.959Z,4.95
2023-03-13T10:20:01.918Z,4.72
2023-03-13T10:23:19.569Z,4.70
2023-03-13T10:26:34.631Z,4.28
2023-03-13T10:29:36.336Z,4.70
2023-03-13T10:32:38.112Z,5.10
2023-03-13T10:35:43.422Z,5.00
2023-03-13T10:38:52.695Z,4.80
2023-03-13T10:42:22.265Z,5.55
2023-03-13T10:45:25.351Z,5.95
2023-03-13T10:48:30.382Z,5.55
2023-03-13T10:51:39.998Z,5.07
2023-03-13T10:54:41.642Z,5.77
2023-03-13T10:57:50.514Z,4.90
2023-03-13T11:00:52.257Z,4.93
2023-03-13T11:03:55.231Z,4.93
2023-03-13T11:07:12.351Z,5.03
2023-03-13T11:10:13.936Z,5.13
2023-03-13T11:13:36.130Z,5.05
2023-03-13T11:16:55.111Z,4.30
2023-03-13T11:20:19.607Z,4.57
2023-03-13T11:23:39.464Z,4.50
2023-03-13T11:27:04.664Z,5.38
2023-03-13T11:30:18.335Z,5.55
2023-03-13T11:33:22.719Z,5.18
2023-03-13T11:40:22.008Z,5.40
2023-03-13T11:43:42.011Z,5.45
2023-03-13T11:46:55.452Z,5.70
2023-03-13T11:50:17.745Z,5.43
2023-03-13T11:53:25.511Z,5.63
2023-03-13T11:56:30.057Z,4.57
2023-03-13T11:59:31.595Z,4.40
2023-03-13T12:02:33.724Z,4.53
2023-03-13T12:05:44.342Z,3.70
2023-03-13T12:08:47.771Z,3.23
2023-03-13T12:12:12.261Z,3.42
2023-03-13T12:15:29.151Z,3.13
2023-03-13T12:18:40.201Z,3.95
2023-03-13T12:21:47.368Z,3.10
2023-03-13T12:24:58.306Z,3.40
2023-03-13T12:28:28.144Z,3.07
2023-03-13T12:31:33.689Z,3.27
2023-03-13T12:34:48.957Z,3.28
2023-03-13T12:37:54.433Z,3.20
2023-03-13T12:41:12.709Z,2.90
2023-03-13T12:44:19.216Z,2.60
2023-03-13T12:47:33.573Z,2.63
2023-03-13T12:50:59.446Z,2.83
2023-03-13T12:57:44.956Z,2.60
2023-03-13T13:00:46.623Z,2.50
2023-03-13T13:04:11.831Z,2.80
2023-03-13T13:07:32.098Z,3.35
2023-03-13T13:10:33.748Z,2.88
2023-03-13T13:13:35.541Z,2.95
2023-03-13T13:16:37.203Z,7.13
2023-03-13T13:19:38.765Z,3.08
2023-03-13T13:26:27.638Z,2.40
2023-03-13T13:29:29.144Z,2.50
2023-03-13T13:32:33.464Z,2.83
2023-03-13T13:35:35.276Z,3.00
2023-03-13T13:38:46.317Z,2.80
2023-03-13T13:41:48.061Z,3.20
2023-03-13T13:45:14.712Z,3.45
2023-03-13T13:48:54.580Z,3.03
2023-03-13T13:52:02.075Z,2.83
2023-03-13T13:55:15.973Z,2.58
2023-03-13T13:58:22.798Z,2.95
2023-03-13T14:01:24.468Z,2.50
2023-03-13T14:04:31.083Z,2.35
2023-03-13T14:07:57.312Z,2.40
2023-03-13T14:11:16.476Z,2.72
2023-03-13T14:14:21.568Z,2.80
2023-03-13T14:17:23.215Z,2.50
2023-03-13T14:20:34.665Z,2.47
2023-03-13T14:23:36.170Z,2.55
2023-03-13T14:26:37.872Z,2.17
2023-03-13T14:29:39.557Z,2.40
2023-03-13T14:32:41.260Z,2.08
2023-03-13T14:35:43.065Z,2.08
2023-03-13T14:38:58.193Z,2.38
2023-03-13T14:42:07.049Z,2.72
2023-03-13T14:45:25.496Z,2.28
2023-03-13T14:48:32.074Z,2.60
2023-03-13T14:51:33.746Z,2.67
2023-03-13T14:54:36.298Z,2.60
2023-03-13T14:57:37.937Z,2.35
2023-03-13T15:00:43.620Z,2.38
2023-03-13T15:03:45.323Z,3.13
2023-03-13T15:06:46.971Z,2.58
2023-03-13T15:09:48.855Z,3.00
2023-03-13T15:12:50.767Z,2.60
2023-03-13T15:15:52.620Z,3.00
2023-03-13T15:18:54.475Z,2.55
2023-03-13T15:21:58.854Z,3.03
2023-03-13T15:25:06.382Z,2.63
2023-03-13T15:28:19.563Z,2.60
2023-03-13T15:31:24.053Z,2.97
2023-03-13T15:34:25.792Z,2.80
2023-03-13T15:37:28.268Z,2.67
2023-03-13T15:40:29.895Z,3.25
2023-03-13T15:43:31.549Z,2.93
2023-03-13T15:46:33.274Z,2.80
2023-03-13T15:49:34.967Z,3.00
2023-03-13T15:52:36.641Z,2.42
2023-03-13T15:55:38.509Z,3.17
2023-03-13T15:58:40.173Z,3.03
2023-03-13T16:01:42.601Z,3.15
2023-03-13T16:04:44.614Z,3.20
2023-03-13T16:07:46.313Z,2.97
2023-03-13T16:10:48.007Z,3.58
2023-03-13T16:13:49.679Z,3.38
2023-03-13T16:16:51.362Z,3.33
2023-03-13T16:19:53.094Z,3.40
2023-03-13T16:22:55.389Z,3.22
2023-03-13T16:25:57.035Z,2.75
2023-03-13T16:28:58.720Z,3.17
2023-03-13T16:32:00.445Z,3.43
2023-03-13T16:35:02.133Z,3.30
2023-03-13T16:38:03.870Z,3.30
2023-03-13T16:41:07.104Z,3.67
2023-03-13T16:44:10.748Z,3.97
2023-03-13T16:47:23.663Z,4.22
2023-03-13T16:50:36.094Z,3.33
2023-03-13T16:53:37.774Z,3.75
2023-03-13T16:56:41.055Z,4.15
2023-03-13T16:59:42.722Z,4.40
2023-03-13T17:02:44.541Z,4.50
2023-03-13T17:05:46.201Z,4.13
2023-03-13T17:08:48.060Z,3.63
2023-03-13T17:11:50.008Z,3.70
2023-03-13T17:14:52.007Z,4.28
2023-03-13T17:17:53.755Z,3.78
2023-03-13T17:20:55.676Z,4.20
2023-03-13T17:23:57.720Z,4.72
2023-03-13T17:26:59.491Z,4.07
2023-03-13T17:30:01.301Z,4.40
2023-03-13T17:33:03.022Z,4.43
2023-03-13T17:36:16.250Z,4.65
2023-03-13T17:39:19.146Z,4.68
2023-03-13T17:42:21.088Z,4.90
2023-03-13T17:45:23.148Z,4.65
2023-03-13T17:48:24.853Z,4.80
2023-03-13T17:51:28.144Z,4.70
2023-03-13T17:54:31.260Z,4.90
2023-03-13T17:57:33.513Z,6.32
2023-03-13T18:00:35.716Z,4.47
2023-03-13T18:03:38.265Z,5.00
2023-03-13T18:06:44.546Z,4.20
2023-03-13T18:09:46.432Z,5.68
2023-03-13T18:12:48.820Z,4.13
2023-03-13T18:15:52.017Z,4.20
2023-03-13T18:18:54.747Z,4.10
2023-03-13T18:21:56.934Z,4.05
2023-03-13T18:24:59.375Z,3.95
2023-03-13T18:28:01.446Z,3.72
2023-03-13T18:31:05.262Z,3.70
2023-03-13T18:34:09.175Z,4.63
2023-03-13T18:37:28.349Z,4.93
2023-03-13T18:40:31.632Z,4.73
2023-03-13T18:43:34.516Z,4.13
2023-03-13T18:46:36.874Z,4.03
2023-03-13T18:49:39.554Z,4.20
2023-03-13T18:52:42.304Z,3.47
2023-03-13T18:55:44.812Z,3.95
2023-03-13T18:58:50.834Z,4.00
2023-03-13T19:01:53.055Z,4.63
2023-03-13T19:04:55.689Z,4.45
2023-03-13T19:07:58.370Z,4.60
2023-03-13T19:11:00.767Z,4.90
2023-03-13T19:14:03.258Z,6.72
2023-03-13T19:17:06.616Z,5.60
2023-03-13T19:20:14.912Z,5.38
2023-03-13T19:23:17.580Z,4.70
2023-03-13T19:26:36.037Z,4.45
2023-03-13T19:29:42.733Z,5.10
2023-03-13T19:32:45.452Z,5.00
2023-03-13T19:35:48.646Z,4.85
2023-03-13T19:38:51.540Z,4.45
2023-03-13T19:41:53.802Z,5.03
2023-03-13T19:44:57.282Z,4.93
2023-03-13T19:48:00.550Z,4.47
2023-03-13T19:51:02.760Z,4.88
2023-03-13T19:54:05.524Z,5.27
2023-03-13T19:57:10.375Z,5.17
2023-03-13T20:00:20.775Z,4.87
2023-03-13T20:03:23.289Z,5.18
2023-03-13T20:06:34.691Z,5.97
2023-03-13T20:09:36.973Z,5.75
2023-03-13T20:12:39.609Z,5.30
2023-03-13T20:15:42.092Z,4.50
2023-03-13T20:18:44.856Z,4.60
2023-03-13T20:21:47.352Z,4.65
2023-03-13T20:24:49.989Z,4.35
2023-03-13T20:27:52.670Z,4.32
2023-03-13T20:30:55.110Z,4.85
2023-03-13T20:33:58.143Z,4.50
2023-03-13T20:37:00.743Z,5.13
2023-03-13T20:40:03.266Z,4.30
2023-03-13T20:43:05.939Z,4.30
2023-03-13T20:46:11.896Z,4.32
2023-03-13T20:49:14.455Z,4.10
2023-03-13T20:52:16.761Z,4.80
2023-03-13T20:55:20.476Z,5.10
2023-03-13T20:58:22.856Z,5.05
2023-03-13T21:01:26.969Z,5.35
2023-03-13T21:04:29.737Z,5.30
2023-03-13T21:07:32.292Z,5.30
2023-03-13T21:10:41.120Z,4.97
2023-03-13T21:13:43.329Z,5.10
2023-03-13T21:16:45.357Z,5.43
2023-03-13T21:19:48.674Z,5.35
2023-03-13T21:22:50.537Z,4.72
2023-03-13T21:25:55.576Z,5.05
2023-03-13T21:29:00.135Z,5.32
2023-03-13T21:32:02.006Z,4.95
2023-03-13T21:35:04.508Z,5.32
2023-03-13T21:38:06.632Z,5.43
2023-03-13T21:41:15.628Z,5.75
2023-03-13T21:44:17.303Z,5.35
2023-03-13T21:47:19.096Z,5.85
2023-03-13T21:53:27.349Z,5.80
2023-03-13T21:56:28.995Z,5.67
2023-03-13T21:59:30.684Z,5.55
2023-03-13T22:02:32.341Z,5.50
2023-03-13T22:05:34.058Z,5.72
2023-03-13T22:08:35.866Z,6.22
2023-03-13T22:11:37.494Z,6.00
2023-03-13T22:14:39.154Z,8.93
2023-03-13T22:17:40.790Z,9.18
2023-03-13T22:20:43.160Z,5.80
2023-03-13T22:23:44.862Z,6.75
2023-03-13T22:26:46.530Z,7.85
2023-03-13T22:29:48.172Z,6.65
2023-03-13T22:32:49.856Z,7.80
2023-03-13T22:35:51.578Z,6.57
2023-03-13T22:38:53.281Z,5.97
2023-03-13T22:41:54.902Z,4.85
2023-03-13T22:44:56.569Z,5.65
2023-03-13T22:47:58.235Z,7.22
2023-03-13T22:51:04.085Z,5.32
2023-03-13T22:54:05.768Z,6.78
2023-03-13T22:57:07.434Z,6.37
2023-03-13T23:00:09.780Z,6.10
2023-03-13T23:03:11.461Z,5.35
2023-03-13T23:06:18.070Z,5.78
2023-03-13T23:09:19.661Z,4.90
2023-03-13T23:12:21.302Z,4.85
2023-03-13T23:15:24.597Z,5.00
2023-03-13T23:18:26.643Z,4.82
2023-03-13T23:21:28.313Z,4.68
2023-03-13T23:24:29.979Z,4.00
2023-03-13T23:27:31.576Z,5.00
2023-03-13T23:30:33.234Z,5.15
2023-03-13T23:33:34.975Z,4.60
2023-03-13T23:36:36.634Z,4.60
2023-03-13T23:39:38.320Z,4.85
2023-03-13T23:42:39.945Z,5.18
2023-03-13T23:45:41.588Z,4.40
2023-03-13T23:48:45.940Z,4.25
2023-03-13T23:51:47.602Z,4.38
2023-03-13T23:54:52.140Z,4.32
2023-03-13T23:57:53.805Z,3.97
